Time;durP1;ratioP1;P1;durP2;ratioP2;P2;SDS_P1;SDS_P2;PMS_P1;PMS_P2;Temp;Humidity;BMP_temperature;BMP_pressure;BME280_temperature;BME280_humidity;BME280_pressure;Samples;Min_cycle;Max_cycle;Signal;HPM_P1;HPM_P2
2021/09/27 00:00:15;;;;;;;14.20;9.95;;;435.80;2355.20;;;;;;5053387;28;20029;-82
2021/09/27 00:02:40;;;;;;;14.18;9.95;;;435.60;2355.20;;;;;;5054413;28;20131;-82
2021/09/27 00:05:12;;;;;;;14.02;10.35;;;435.60;2355.20;;;;;;5054953;28;20100;-83
2021/09/27 00:07:39;;;;;;;16.73;11.30;;;435.40;2355.20;;;;;;5053462;28;20070;-86
2021/09/27 00:10:06;;;;;;;18.17;10.85;;;435.50;2355.20;;;;;;5053473;28;20359;-83
2021/09/27 00:12:32;;;;;;;16.02;10.75;;;435.50;2355.20;;;;;;5053525;28;20098;-82
2021/09/27 00:14:58;;;;;;;17.90;10.35;;;435.60;2355.20;;;;;;5036579;28;20457;-82
2021/09/27 00:17:24;;;;;;;15.27;9.50;;;435.30;2355.20;;;;;;5053366;28;20457;-85
2021/09/27 00:19:50;;;;;;;17.13;10.60;;;435.50;2355.20;;;;;;5053217;28;20025;-83
2021/09/27 00:22:16;;;;;;;16.45;10.75;;;435.50;2355.20;;;;;;5052931;28;20053;-84
2021/09/27 00:24:42;;;;;;;17.73;10.82;;;435.50;2355.20;;;;;;5036596;28;20408;-82
2021/09/27 00:27:08;;;;;;;14.88;11.38;;;435.50;2355.20;;;;;;5053546;28;20115;-84
2021/09/27 00:29:33;;;;;;;22.63;12.13;;;435.60;2355.20;;;;;;5053038;28;20032;-81
2021/09/27 00:31:59;;;;;;;17.67;11.15;;;435.60;2355.20;;;;;;5052938;28;20451;-82
2021/09/27 00:34:25;;;;;;;17.58;12.15;;;435.60;2355.20;;;;;;5053170;28;20025;-83
2021/09/27 00:36:52;;;;;;;18.15;11.00;;;435.60;2355.20;;;;;;5053111;28;20455;-83
2021/09/27 00:39:18;;;;;;;16.42;10.63;;;435.60;2355.20;;;;;;5054204;28;20013;-83
2021/09/27 00:41:44;;;;;;;16.50;9.70;;;435.60;2355.20;;;;;;5052534;28;20115;-83
2021/09/27 00:44:11;;;;;;;16.33;10.32;;;435.60;2355.20;;;;;;5052544;28;20136;-82
2021/09/27 00:46:37;;;;;;;21.10;10.93;;;435.40;2355.20;;;;;;5052707;28;20040;-82
2021/09/27 00:49:04;;;;;;;14.70;10.50;;;435.40;2355.20;;;;;;5052405;28;20420;-82
2021/09/27 00:51:33;;;;;;;18.45;10.95;;;435.40;2355.20;;;;;;5052653;28;20087;-82
2021/09/27 00:54:07;;;;;;;15.15;10.35;;;435.40;2355.20;;;;;;5052679;28;20033;-82
2021/09/27 00:56:50;;;;;;;18.38;10.57;;;435.50;2355.20;;;;;;5052375;28;20461;-83
2021/09/27 00:59:16;;;;;;;;;;;435.30;2355.20;;;;;;5052978;28;20021;-82
2021/09/27 01:01:42;;;;;;;15.65;10.30;;;410.50;2355.20;;;;;;5052536;28;19927;-83
2021/09/27 01:04:09;;;;;;;14.55;9.93;;;410.50;2355.20;;;;;;5052046;28;20025;-84
2021/09/27 01:07:02;;;;;;;19.15;10.75;;;435.20;2355.20;;;;;;5051663;28;20465;-84
2021/09/27 01:10:06;;;;;;;15.23;11.43;;;410.50;2355.20;;;;;;5036044;28;20025;-83
2021/09/27 01:12:53;;;;;;;15.10;11.60;;;410.30;2355.20;;;;;;5052414;28;20092;-85
2021/09/27 01:15:40;;;;;;;17.92;11.45;;;410.30;2355.20;;;;;;5054560;28;20079;-82
2021/09/27 01:18:32;;;;;;;17.83;11.18;;;410.30;2355.20;;;;;;5055900;28;20099;-82
2021/09/27 01:21:17;;;;;;;13.70;10.63;;;410.30;2355.20;;;;;;5055026;28;20029;-84
2021/09/27 01:24:40;;;;;;;16.13;10.02;;;409.90;2355.20;;;;;;5037185;28;20109;-83
2021/09/27 01:27:53;;;;;;;21.67;11.60;;;409.80;2355.20;;;;;;4977593;28;20401;-83
2021/09/27 01:30:30;;;;;;;18.27;9.65;;;409.60;2355.20;;;;;;4993632;28;20522;-81
2021/09/27 01:33:04;;;;;;;14.02;9.57;;;409.70;2355.20;;;;;;5051575;28;20420;-84
2021/09/27 01:35:40;;;;;;;16.35;10.45;;;409.70;2355.20;;;;;;5051940;28;20436;-82
2021/09/27 01:38:14;;;;;;;13.70;9.35;;;409.60;2355.20;;;;;;5051780;28;20025;-82
2021/09/27 01:41:09;;;;;;;15.20;10.48;;;409.60;2355.20;;;;;;5051982;28;20028;-82
2021/09/27 01:44:00;;;;;;;14.63;9.18;;;384.90;2329.60;;;;;;5051908;28;20032;-84
2021/09/27 01:46:33;;;;;;;13.95;9.75;;;384.80;2329.60;;;;;;5035039;28;20028;-84
2021/09/27 01:49:06;;;;;;;12.20;9.02;;;409.60;2355.20;;;;;;5052134;28;20560;-85
2021/09/27 01:51:44;;;;;;;12.57;8.85;;;409.70;2355.20;;;;;;5051807;28;20029;-83
2021/09/27 01:54:34;;;;;;;16.75;9.80;;;384.90;2329.60;;;;;;5052468;28;20040;-86
2021/09/27 01:57:35;;;;;;;20.77;11.32;;;384.90;2329.60;;;;;;5052259;28;20468;-85
2021/09/27 02:00:23;;;;;;;13.98;9.50;;;409.60;2355.20;;;;;;5034971;28;20059;-81
2021/09/27 02:03:29;;;;;;;15.98;10.27;;;409.70;2355.20;;;;;;5052200;28;20074;-83
2021/09/27 02:06:24;;;;;;;16.00;10.00;;;409.70;2355.20;;;;;;5051158;28;20056;-84
2021/09/27 02:09:03;;;;;;;15.57;9.88;;;409.90;2355.20;;;;;;5051662;28;20025;-84
2021/09/27 02:11:35;;;;;;;17.90;9.07;;;410.00;2355.20;;;;;;5051650;28;20059;-84
2021/09/27 02:14:33;;;;;;;17.40;8.20;;;409.70;2355.20;;;;;;5051295;28;20055;-83
2021/09/27 02:17:06;;;;;;;11.80;7.93;;;409.70;2355.20;;;;;;5052166;28;20120;-83
2021/09/27 02:20:08;;;;;;;10.80;8.25;;;409.60;2355.20;;;;;;5055031;28;20028;-83
2021/09/27 02:22:51;;;;;;;11.73;8.82;;;409.60;2355.20;;;;;;5055171;28;20052;-83
2021/09/27 02:25:21;;;;;;;17.05;8.32;;;384.90;2329.60;;;;;;5055475;28;20069;-85
2021/09/27 02:27:53;;;;;;;12.70;8.43;;;384.70;2329.60;;;;;;5054971;28;20498;-86
2021/09/27 02:30:27;;;;;;;12.70;8.10;;;384.70;2329.60;;;;;;5055278;28;20029;-84
2021/09/27 02:33:19;;;;;;;16.13;9.35;;;384.70;2329.60;;;;;;5055208;28;20060;-83
2021/09/27 02:36:07;;;;;;;13.32;8.35;;;384.50;2329.60;;;;;;5055105;28;20154;-84
2021/09/27 02:38:59;;;;;;;13.93;8.80;;;384.30;2329.60;;;;;;5055020;28;20031;-82
2021/09/27 02:41:35;;;;;;;13.93;9.73;;;384.60;2329.60;;;;;;5038279;28;20071;-84
2021/09/27 02:44:01;;;;;;;10.85;8.32;;;384.60;2329.60;;;;;;5055188;28;20055;-82
2021/09/27 02:46:29;;;;;;;15.65;8.55;;;384.70;2329.60;;;;;;5055365;28;20021;-83
2021/09/27 02:48:58;;;;;;;15.07;8.65;;;384.90;2329.60;;;;;;5054912;28;20029;-82
2021/09/27 02:51:26;;;;;;;14.85;9.10;;;384.90;2329.60;;;;;;5055375;28;20028;-83
2021/09/27 02:53:52;;;;;;;13.05;9.02;;;409.60;2355.20;;;;;;5054923;28;20052;-85
2021/09/27 02:56:39;;;;;;;11.80;8.43;;;409.70;2355.20;;;;;;5054924;28;20075;-85
2021/09/27 02:59:05;;;;;;;13.90;9.13;;;409.90;2355.20;;;;;;5038445;28;20025;-82
2021/09/27 03:01:41;;;;;;;14.48;9.20;;;409.90;2355.20;;;;;;5038378;28;20027;-81
2021/09/27 03:04:40;;;;;;;16.33;10.02;;;409.90;2355.20;;;;;;5055029;28;20453;-82
2021/09/27 03:07:38;;;;;;;11.38;8.75;;;409.90;2355.20;;;;;;5055120;28;20373;-82
2021/09/27 03:10:07;;;;;;;14.18;8.70;;;409.70;2355.20;;;;;;5028623;28;20037;-82
2021/09/27 03:12:49;;;;;;;16.23;9.63;;;384.90;2329.60;;;;;;5038248;28;20040;-83
2021/09/27 03:16:03;;;;;;;12.20;8.93;;;384.60;2329.60;;;;;;5054823;28;20021;-83
2021/09/27 03:18:49;;;;;;;14.48;8.57;;;384.50;2329.60;;;;;;5037897;28;20063;-86
2021/09/27 03:21:58;;;;;;;13.63;8.15;;;384.50;2329.60;;;;;;5037488;28;20021;-84
2021/09/27 03:25:03;;;;;;;22.13;9.65;;;384.60;2329.60;;;;;;5037233;28;20120;-83
2021/09/27 03:27:55;;;;;;;16.42;9.23;;;384.40;2329.60;;;;;;5054195;28;20025;-84
2021/09/27 03:30:46;;;;;;;15.88;9.23;;;384.30;2329.60;;;;;;5036674;28;20041;-83
2021/09/27 03:33:59;;;;;;;16.85;9.10;;;384.30;2329.60;;;;;;5054032;28;20029;-83
2021/09/27 03:36:42;;;;;;;17.02;9.02;;;384.20;2329.60;;;;;;5054581;28;20057;-83
2021/09/27 03:39:33;;;;;;;18.52;9.05;;;384.00;2329.60;;;;;;5037423;28;20025;-84
2021/09/27 03:42:17;;;;;;;16.10;9.82;;;384.00;2329.60;;;;;;5054215;28;20025;-83
2021/09/27 03:44:55;;;;;;;15.30;8.70;;;359.30;2329.60;;;;;;5053671;28;20425;-84
2021/09/27 03:47:29;;;;;;;16.00;9.20;;;359.20;2329.60;;;;;;5054046;28;20362;-85
2021/09/27 03:50:12;;;;;;;18.48;9.60;;;384.00;2329.60;;;;;;5055507;28;20021;-83
2021/09/27 03:52:49;;;;;;;18.83;9.18;;;384.00;2329.60;;;;;;5038535;28;20064;-83
2021/09/27 03:55:46;;;;;;;16.52;9.65;;;384.00;2329.60;;;;;;5039049;28;20029;-83
2021/09/27 03:58:12;;;;;;;14.15;9.45;;;359.00;2329.60;;;;;;5057279;28;20036;-82
2021/09/27 04:01:04;;;;;;;20.13;10.80;;;359.00;2329.60;;;;;;5040176;28;20021;-82
2021/09/27 04:03:51;;;;;;;17.73;10.40;;;359.00;2329.60;;;;;;5019182;28;20090;-83
2021/09/27 04:07:43;;;;;;;15.50;9.57;;;359.20;2329.60;;;;;;5063046;28;20051;-82
2021/09/27 04:10:43;;;;;;;13.23;8.73;;;384.00;2329.60;;;;;;4987589;28;20026;-82
2021/09/27 04:13:14;;;;;;;13.27;8.80;;;384.20;2329.60;;;;;;4987740;28;20514;-86
2021/09/27 04:16:33;;;;;;;17.88;10.10;;;384.30;2329.60;;;;;;5053456;28;20025;-82
2021/09/27 04:19:31;;;;;;;12.73;8.20;;;384.30;2329.60;;;;;;4992816;28;20596;-84
2021/09/27 04:22:16;;;;;;;17.95;8.75;;;384.30;2329.60;;;;;;4977734;28;20502;-84
2021/09/27 04:25:40;;;;;;;13.18;9.18;;;384.40;2329.60;;;;;;4976606;28;20026;-84
2021/09/27 04:28:50;;;;;;;;;;;;;;;;;;;;;
2021/09/27 04:31:41;;;;;;;21.15;12.45;;;384.40;2329.60;;;;;;4992935;28;20032;-83
2021/09/27 04:34:16;;;;;;;21.10;10.85;;;384.00;2329.60;;;;;;5043117;28;20392;-82
2021/09/27 04:36:51;;;;;;;20.95;11.05;;;359.30;2329.60;;;;;;5054472;28;20053;-83
2021/09/27 04:39:23;;;;;;;21.88;12.30;;;384.00;2329.60;;;;;;5053146;28;20494;-85
2021/09/27 04:41:58;;;;;;;21.98;12.65;;;384.10;2329.60;;;;;;5035752;28;20033;-84
2021/09/27 04:44:53;;;;;;;15.25;9.88;;;384.00;2329.60;;;;;;5054200;28;20036;-82
2021/09/27 04:51:22;;;;;;;20.73;10.50;;;384.10;2329.60;;;;;;5039982;28;20037;-86
2021/09/27 04:54:16;;;;;;;15.98;10.82;;;384.10;2329.60;;;;;;5051685;28;20043;-83
2021/09/27 04:57:05;;;;;;;17.15;11.48;;;384.10;2329.60;;;;;;5052408;28;20041;-85
2021/09/27 05:00:31;;;;;;;23.20;12.90;;;384.10;2329.60;;;;;;5052310;28;20025;-80
2021/09/27 05:03:20;;;;;;;21.55;11.48;;;359.20;2329.60;;;;;;4992216;28;20170;-82
2021/09/27 05:06:33;;;;;;;23.40;11.95;;;359.00;2329.60;;;;;;4976420;28;20030;-82
2021/09/27 05:09:47;;;;;;;22.50;11.98;;;359.20;2329.60;;;;;;5035604;28;20495;-83
2021/09/27 05:13:31;;;;;;;16.27;11.18;;;359.20;2329.60;;;;;;5052410;28;20384;-82
2021/09/27 05:16:18;;;;;;;23.65;10.85;;;384.00;2329.60;;;;;;5053331;28;20090;-84
2021/09/27 05:19:30;;;;;;;19.02;11.75;;;359.20;2329.60;;;;;;5053423;28;20021;-82
2021/09/27 05:22:38;;;;;;;18.95;11.70;;;359.30;2329.60;;;;;;5031811;28;20049;-83
2021/09/27 05:25:29;;;;;;;27.80;13.63;;;384.00;2329.60;;;;;;5048843;28;20042;-83
2021/09/27 05:28:26;;;;;;;24.20;13.60;;;384.00;2329.60;;;;;;5032272;28;20087;-82
2021/09/27 05:31:14;;;;;;;21.58;13.27;;;359.30;2329.60;;;;;;5015495;28;20079;-83
2021/09/27 05:33:53;;;;;;;17.75;11.77;;;359.30;2329.60;;;;;;5019871;28;20030;-83
2021/09/27 05:36:44;;;;;;;20.92;11.60;;;384.00;2329.60;;;;;;5044472;28;20072;-85
2021/09/27 05:39:37;;;;;;;27.25;13.38;;;384.00;2329.60;;;;;;5032419;28;20030;-83
2021/09/27 05:42:23;;;;;;;26.38;13.77;;;384.00;2329.60;;;;;;5016719;28;20068;-84
2021/09/27 05:45:11;;;;;;;21.88;13.43;;;384.00;2329.60;;;;;;5016725;28;20109;-84
2021/09/27 05:48:38;;;;;;;23.05;12.95;;;359.20;2329.60;;;;;;5050171;28;20020;-82
2021/09/27 05:51:31;;;;;;;22.98;12.93;;;359.30;2329.60;;;;;;5039901;28;20017;-82
2021/09/27 05:54:16;;;;;;;27.87;14.70;;;384.30;2329.60;;;;;;5057630;28;20017;-84
2021/09/27 05:57:06;;;;;;;26.75;13.38;;;384.40;2329.60;;;;;;5048522;28;20140;-84
2021/09/27 06:00:14;;;;;;;24.92;15.63;;;384.40;2329.60;;;;;;5022967;28;20022;-85
2021/09/27 06:03:05;;;;;;;30.63;13.50;;;384.40;2329.60;;;;;;5032955;28;20037;-85
2021/09/27 06:05:48;;;;;;;21.80;15.40;;;384.50;2329.60;;;;;;5037169;28;20079;-84
2021/09/27 06:08:23;;;;;;;21.02;13.52;;;384.50;2329.60;;;;;;5020108;28;20096;-84
2021/09/27 06:11:16;;;;;;;22.50;13.38;;;384.60;2329.60;;;;;;5036242;28;20071;-84
2021/09/27 06:13:46;;;;;;;19.95;11.75;;;384.70;2329.60;;;;;;5019608;28;20108;-85
2021/09/27 06:16:34;;;;;;;21.23;13.30;;;384.80;2329.60;;;;;;5035571;28;20047;-84
2021/09/27 06:19:37;;;;;;;25.33;13.68;;;384.80;2329.60;;;;;;5035364;28;20022;-87
2021/09/27 06:22:45;;;;;;;23.30;14.60;;;384.80;2329.60;;;;;;5026359;28;20131;-84
2021/09/27 06:25:43;;;;;;;21.83;14.32;;;384.80;2329.60;;;;;;5055017;28;20037;-84
2021/09/27 06:28:48;;;;;;;28.63;14.32;;;384.90;2329.60;;;;;;5054808;28;20033;-83
2021/09/27 06:31:54;;;;;;;23.35;14.20;;;409.60;2355.20;;;;;;5038605;28;20095;-84
2021/09/27 06:34:44;;;;;;;24.75;14.13;;;409.60;2355.20;;;;;;5044769;28;20071;-85
2021/09/27 06:37:12;;;;;;;22.17;14.30;;;409.60;2355.20;;;;;;5038719;28;20029;-85
2021/09/27 06:39:38;;;;;;;25.73;13.30;;;409.70;2355.20;;;;;;5054704;28;20036;-85
2021/09/27 06:42:04;;;;;;;23.42;14.60;;;409.80;2355.20;;;;;;5055124;28;20039;-84
2021/09/27 06:44:30;;;;;;;28.90;12.80;;;410.00;2355.20;;;;;;5038577;28;20036;-84
2021/09/27 06:46:56;;;;;;;21.65;12.40;;;410.10;2355.20;;;;;;5054826;28;20025;-84
2021/09/27 06:49:23;;;;;;;22.50;12.80;;;410.20;2355.20;;;;;;5038392;28;20082;-83
2021/09/27 06:51:49;;;;;;;23.73;12.32;;;409.80;2355.20;;;;;;5054902;28;20066;-84
2021/09/27 06:54:17;;;;;;;26.02;13.40;;;410.50;2355.20;;;;;;5054745;28;20457;-85
2021/09/27 06:56:45;;;;;;;27.05;14.32;;;435.20;2355.20;;;;;;5054973;28;20025;-84
2021/09/27 06:59:12;;;;;;;30.55;17.13;;;435.20;2355.20;;;;;;5054732;28;20060;-85
2021/09/27 07:01:38;;;;;;;34.10;18.65;;;435.30;2355.20;;;;;;5054588;28;20025;-83
2021/09/27 07:04:04;;;;;;;45.58;23.90;;;435.30;2355.20;;;;;;5054424;28;20655;-82
2021/09/27 07:06:30;;;;;;;42.42;25.30;;;435.30;2355.20;;;;;;5054157;28;20068;-82
2021/09/27 07:08:55;;;;;;;34.67;19.55;;;435.40;2355.20;;;;;;5054388;28;20029;-83
2021/09/27 07:11:22;;;;;;;34.38;20.05;;;435.50;2355.20;;;;;;5054744;28;20025;-86
2021/09/27 07:13:49;;;;;;;48.05;26.73;;;435.60;2355.20;;;;;;5054237;28;20055;-84
2021/09/27 07:16:15;;;;;;;32.92;17.02;;;435.70;2355.20;;;;;;5054477;28;20070;-84
2021/09/27 07:18:41;;;;;;;20.35;12.15;;;435.70;2355.20;;;;;;5054437;28;20128;-83
2021/09/27 07:21:08;;;;;;;20.98;13.05;;;435.80;2355.20;;;;;;5055579;28;20504;-84
2021/09/27 07:23:40;;;;;;;20.60;11.05;;;436.10;2355.20;;;;;;5054961;28;20056;-84
2021/09/27 07:26:09;;;;;;;15.45;10.60;;;461.10;2380.80;;;;;;5055959;28;20112;-84
2021/09/27 07:28:35;;;;;;;17.75;12.23;;;436.10;2355.20;;;;;;5054288;28;20472;-83
2021/09/27 07:31:02;;;;;;;18.00;13.10;;;436.10;2355.20;;;;;;5037620;28;20029;-84
2021/09/27 07:33:28;;;;;;;24.98;15.50;;;460.80;2380.80;;;;;;5055106;28;20031;-84
2021/09/27 07:35:55;;;;;;;31.00;16.48;;;460.80;2380.80;;;;;;5054297;28;20072;-83
2021/09/27 07:38:22;;;;;;;34.63;18.65;;;460.90;2380.80;;;;;;5053866;28;20028;-84
2021/09/27 07:40:48;;;;;;;21.25;13.20;;;461.00;2380.80;;;;;;5054149;28;20033;-85
2021/09/27 07:43:14;;;;;;;21.88;12.63;;;461.10;2380.80;;;;;;5054030;28;20121;-85
2021/09/27 07:45:40;;;;;;;23.75;11.90;;;461.20;2380.80;;;;;;5053817;28;20445;-84
2021/09/27 07:48:13;;;;;;;24.08;12.75;;;461.20;2380.80;;;;;;5053886;28;20025;-84
2021/09/27 07:50:39;;;;;;;;;;;461.20;2380.80;;;;;;5055392;28;20022;-83
2021/09/27 07:53:05;;;;;;;17.70;11.98;;;461.20;2380.80;;;;;;5053494;28;19958;-83
2021/09/27 07:55:31;;;;;;;20.88;11.07;;;461.30;2380.80;;;;;;5037287;28;20033;-83
2021/09/27 07:57:57;;;;;;;18.70;11.60;;;461.30;2380.80;;;;;;5054999;28;20036;-84
2021/09/27 08:00:23;;;;;;;20.98;12.57;;;461.40;2380.80;;;;;;5036729;28;20025;-83
2021/09/27 08:02:49;;;;;;;19.20;12.02;;;461.50;2380.80;;;;;;5053588;28;20063;-83
2021/09/27 08:05:26;;;;;;;19.80;11.60;;;461.50;2380.80;;;;;;5053641;28;20056;-82
2021/09/27 08:07:52;;;;;;;23.52;13.82;;;461.60;2380.80;;;;;;5053493;28;20171;-84
2021/09/27 08:10:20;;;;;;;20.90;13.50;;;486.40;2380.80;;;;;;5053576;28;20032;-83
2021/09/27 08:12:46;;;;;;;25.60;16.58;;;486.40;2380.80;;;;;;5053408;28;20040;-82
2021/09/27 08:15:17;;;;;;;17.95;11.52;;;486.60;2380.80;;;;;;5053197;28;20068;-80
2021/09/27 08:17:46;;;;;;;22.17;14.55;;;486.70;2380.80;;;;;;5053182;28;20029;-79
2021/09/27 08:20:16;;;;;;;20.23;15.50;;;486.80;2380.80;;;;;;5053080;28;20033;-79
2021/09/27 08:22:42;;;;;;;19.15;12.45;;;487.00;2380.80;;;;;;5052983;28;20439;-79
2021/09/27 08:25:08;;;;;;;14.77;9.27;;;487.20;2380.80;;;;;;5053007;28;20115;-78
2021/09/27 08:27:35;;;;;;;18.33;9.13;;;487.20;2380.80;;;;;;5052518;28;20029;-79
2021/09/27 08:30:01;;;;;;;13.10;9.50;;;487.00;2380.80;;;;;;5053857;28;20037;-78
2021/09/27 08:32:26;;;;;;;17.13;9.35;;;512.00;2380.80;;;;;;5053880;28;20192;-79
2021/09/27 08:34:53;;;;;;;14.05;8.27;;;512.20;2380.80;;;;;;5035997;28;20040;-78
2021/09/27 08:37:20;;;;;;;14.75;8.93;;;512.20;2380.80;;;;;;5036231;28;20025;-77
2021/09/27 08:39:48;;;;;;;23.17;9.38;;;512.40;2380.80;;;;;;5052740;28;20025;-78
2021/09/27 08:42:32;;;;;;;15.05;8.45;;;512.50;2380.80;;;;;;5052486;28;20033;-78
2021/09/27 08:45:23;;;;;;;18.73;10.00;;;512.70;2380.80;;;;;;5053946;28;20017;-77
2021/09/27 08:47:57;;;;;;;19.20;10.68;;;512.80;2380.80;;;;;;5052808;28;20052;-76
2021/09/27 08:50:39;;;;;;;17.30;9.80;;;512.90;2380.80;;;;;;5052288;28;20028;-78
2021/09/27 08:53:28;;;;;;;16.17;9.33;;;512.90;2380.80;;;;;;5052513;28;20384;-78
2021/09/27 08:56:18;;;;;;;12.20;8.95;;;537.70;2406.40;;;;;;5049468;28;20028;-78
2021/09/27 08:58:48;;;;;;;17.42;9.82;;;537.90;2406.40;;;;;;5034511;28;20025;-77
2021/09/27 09:01:18;;;;;;;13.02;8.52;;;537.90;2406.40;;;;;;5029442;28;20025;-77
2021/09/27 09:04:11;;;;;;;15.70;10.05;;;537.90;2406.40;;;;;;5051414;28;20385;-78
2021/09/27 09:06:45;;;;;;;20.55;12.15;;;538.10;2406.40;;;;;;5048337;28;20033;-79
2021/09/27 09:09:17;;;;;;;23.35;15.70;;;538.40;2406.40;;;;;;5045581;28;20458;-77
2021/09/27 09:11:51;;;;;;;32.00;21.45;;;538.50;2406.40;;;;;;5032547;28;20397;-79
2021/09/27 09:15:05;;;;;;;21.42;11.73;;;563.20;2432.00;;;;;;5034696;28;20217;-77
2021/09/27 09:17:36;;;;;;;21.25;10.98;;;538.50;2406.40;;;;;;5033157;28;20029;-77
2021/09/27 09:20:10;;;;;;;43.28;23.35;;;538.50;2406.40;;;;;;5034671;28;20527;-77
2021/09/27 09:22:41;;;;;;;32.08;15.25;;;538.50;2406.40;;;;;;5051832;28;20107;-77
2021/09/27 09:25:33;;;;;;;13.80;9.82;;;563.30;2432.00;;;;;;5050579;28;20025;-76
2021/09/27 09:28:01;;;;;;;12.95;7.90;;;563.40;2432.00;;;;;;5051015;28;20025;-77
2021/09/27 09:30:37;;;;;;;13.68;8.32;;;563.40;2432.00;;;;;;5053180;28;20029;-76
2021/09/27 09:33:03;;;;;;;18.25;11.48;;;563.60;2432.00;;;;;;5068470;28;20051;-78
2021/09/27 09:35:31;;;;;;;14.93;7.85;;;563.60;2432.00;;;;;;5049221;28;20477;-77
2021/09/27 09:38:11;;;;;;;9.68;6.30;;;563.60;2432.00;;;;;;5037957;28;20025;-77
2021/09/27 09:40:57;;;;;;;10.20;7.05;;;563.70;2432.00;;;;;;5054957;28;20028;-76
2021/09/27 09:43:33;;;;;;;10.73;6.57;;;564.00;2432.00;;;;;;5054777;28;20052;-78
2021/09/27 09:46:11;;;;;;;11.88;7.75;;;564.10;2432.00;;;;;;5054308;28;20052;-76
2021/09/27 09:48:59;;;;;;;17.83;9.35;;;588.90;2432.00;;;;;;5028595;28;20380;-76
2021/09/27 09:51:33;;;;;;;13.90;8.68;;;588.90;2432.00;;;;;;5076263;28;20086;-77
2021/09/27 09:54:16;;;;;;;14.93;8.30;;;589.10;2432.00;;;;;;5075609;28;20107;-77
2021/09/27 09:56:44;;;;;;;;;;;589.20;2432.00;;;;;;5076284;28;20090;-76
2021/09/27 09:59:23;;;;;;;16.10;10.32;;;589.30;2432.00;;;;;;5075855;28;20344;-78
2021/09/27 10:01:53;;;;;;;11.45;8.00;;;589.40;2432.00;;;;;;5074414;28;20031;-76
2021/09/27 10:04:28;;;;;;;10.68;7.75;;;589.70;2432.00;;;;;;5057924;28;20426;-76
2021/09/27 10:07:05;;;;;;;11.50;6.57;;;614.50;2432.00;;;;;;5057355;28;20029;-75
2021/09/27 10:09:51;;;;;;;12.80;7.93;;;614.60;2432.00;;;;;;5075426;28;20032;-76
2021/09/27 10:12:56;;;;;;;15.13;9.50;;;614.80;2432.00;;;;;;5021120;28;20124;-77
2021/09/27 10:15:35;;;;;;;14.00;8.85;;;614.80;2432.00;;;;;;4993500;28;20034;-75
2021/09/27 10:18:06;;;;;;;18.38;9.68;;;614.80;2432.00;;;;;;4994232;28;20446;-78
2021/09/27 10:20:39;;;;;;;11.75;6.05;;;614.80;2432.00;;;;;;5030319;28;20033;-77
2021/09/27 10:23:12;;;;;;;10.20;7.05;;;615.00;2432.00;;;;;;5054857;28;20049;-79
2021/09/27 10:25:42;;;;;;;12.60;7.75;;;615.20;2432.00;;;;;;5055175;28;20112;-77
2021/09/27 10:28:13;;;;;;;15.10;7.45;;;615.20;2432.00;;;;;;5054934;28;20025;-77
2021/09/27 10:30:59;;;;;;;13.32;6.50;;;640.20;2432.00;;;;;;5055280;28;20086;-76
2021/09/27 10:33:29;;;;;;;19.98;11.57;;;640.50;2432.00;;;;;;5054614;28;20025;-77
2021/09/27 10:35:56;;;;;;;14.90;8.85;;;640.60;2432.00;;;;;;5054737;28;20033;-77
2021/09/27 10:38:27;;;;;;;15.40;7.63;;;640.60;2406.40;;;;;;5056388;28;20353;-77
2021/09/27 10:40:54;;;;;;;13.23;6.38;;;640.60;2355.20;;;;;;5055883;28;20365;-77
2021/09/27 10:43:24;;;;;;;13.00;8.25;;;640.70;2278.40;;;;;;5056100;28;20025;-79
2021/09/27 10:45:55;;;;;;;12.80;6.38;;;640.90;2278.40;;;;;;5055987;28;20489;-78
2021/09/27 10:48:22;;;;;;;11.68;7.05;;;665.60;2304.00;;;;;;5055406;28;20527;-77
2021/09/27 10:51:05;;;;;;;13.57;7.82;;;665.90;2329.60;;;;;;5055309;28;20079;-77
2021/09/27 10:53:36;;;;;;;13.00;8.30;;;666.10;2355.20;;;;;;5054515;28;20039;-78
2021/09/27 10:56:17;;;;;;;13.40;6.65;;;691.20;2278.40;;;;;;5037447;28;20086;-77
2021/09/27 10:58:47;;;;;;;12.10;6.03;;;691.30;2278.40;;;;;;5055744;28;20096;-77
2021/09/27 11:01:34;;;;;;;9.32;5.78;;;691.40;2124.80;;;;;;5054123;28;20021;-77
2021/09/27 11:04:00;;;;;;;17.48;8.52;;;691.60;2073.60;;;;;;5038855;28;20372;-78
2021/09/27 11:06:48;;;;;;;13.20;8.18;;;691.70;2073.60;;;;;;5054463;28;20029;-77
2021/09/27 11:09:36;;;;;;;11.20;5.70;;;692.10;2073.60;;;;;;5054255;28;20469;-77
2021/09/27 11:12:11;;;;;;;18.60;7.80;;;716.90;2073.60;;;;;;5054226;28;20027;-79
2021/09/27 11:14:52;;;;;;;11.68;6.40;;;717.00;2099.20;;;;;;5055375;28;20477;-78
2021/09/27 11:17:32;;;;;;;20.48;11.57;;;717.20;1996.80;;;;;;5054016;28;20060;-78
2021/09/27 11:20:13;;;;;;;16.33;10.70;;;717.40;1996.80;;;;;;5055742;28;20496;-78
2021/09/27 11:23:04;;;;;;;15.33;8.97;;;717.50;1971.20;;;;;;5054963;28;20103;-77
2021/09/27 11:25:33;;;;;;;15.57;7.80;;;;;;;;;;5055232;28;20534;-77
2021/09/27 11:28:11;;;;;;;9.50;5.60;;;742.60;1996.80;;;;;;5037611;28;20025;-77
2021/09/27 11:30:58;;;;;;;11.63;7.03;;;742.80;1920.00;;;;;;5036967;28;20025;-78
2021/09/27 11:33:27;;;;;;;9.15;5.30;;;742.90;1868.80;;;;;;5054839;28;20033;-80
2021/09/27 11:35:56;;;;;;;8.57;4.40;;;743.00;1792.00;;;;;;5037612;28;20044;-79
2021/09/27 11:38:44;;;;;;;9.77;5.05;;;743.00;1740.80;;;;;;5053528;28;20059;-77
2021/09/27 11:41:10;;;;;;;13.95;6.75;;;743.10;1740.80;;;;;;5053791;28;20029;-79
2021/09/27 11:44:07;;;;;;;10.65;4.93;;;743.30;1740.80;;;;;;5036830;28;20078;-76
2021/09/27 11:46:44;;;;;;;11.68;5.10;;;768.00;1715.20;;;;;;5036970;28;20053;-79
2021/09/27 11:49:30;;;;;;;16.17;9.02;;;768.10;1740.80;;;;;;5054842;28;20104;-76
2021/09/27 11:52:09;;;;;;;16.75;8.77;;;;;;;;;;5035932;28;20025;-77
2021/09/27 11:54:51;;;;;;;17.48;8.25;;;768.70;1740.80;;;;;;5036891;28;20155;-78
2021/09/27 11:57:36;;;;;;;15.07;7.95;;;768.90;1766.40;;;;;;5036592;28;20032;-79
2021/09/27 12:00:08;;;;;;;16.13;7.40;;;768.80;1715.20;;;;;;5053433;28;20040;-78
2021/09/27 12:03:11;;;;;;;16.85;6.38;;;793.60;1740.80;;;;;;5036787;28;20111;-79
2021/09/27 12:06:14;;;;;;;14.23;6.70;;;793.80;1766.40;;;;;;5054196;28;20029;-79
2021/09/27 12:08:48;;;;;;;12.88;7.25;;;793.90;1715.20;;;;;;4999290;28;20484;-78
2021/09/27 12:11:18;;;;;;;31.90;18.40;;;794.00;1715.20;;;;;;5054301;28;20442;-78
2021/09/27 12:13:43;;;;;;;16.73;6.75;;;794.10;1664.00;;;;;;5054272;28;20079;-77
2021/09/27 12:16:21;;;;;;;20.13;8.38;;;794.00;1664.00;;;;;;5054015;28;20489;-76
2021/09/27 12:18:52;;;;;;;22.40;15.98;;;794.10;1715.20;;;;;;5036061;28;20025;-76
2021/09/27 12:21:23;;;;;;;13.25;5.32;;;794.10;1689.60;;;;;;5054093;28;20021;-77
2021/09/27 12:23:52;;;;;;;16.13;6.50;;;794.00;1664.00;;;;;;5036377;28;20029;-77
2021/09/27 12:26:22;;;;;;;14.40;6.35;;;794.10;1638.40;;;;;;5033926;28;20032;-76
2021/09/27 12:28:58;;;;;;;15.68;9.25;;;794.20;1689.60;;;;;;5052509;28;20089;-77
2021/09/27 12:31:24;;;;;;;16.05;6.38;;;794.30;1740.80;;;;;;5053277;28;20029;-76
2021/09/27 12:33:49;;;;;;;15.85;8.25;;;794.50;1689.60;;;;;;5052399;28;20388;-77
2021/09/27 12:36:21;;;;;;;34.25;15.13;;;819.30;1715.20;;;;;;5053643;28;20037;-77
2021/09/27 12:38:50;;;;;;;20.45;8.60;;;819.30;1689.60;;;;;;5052688;28;20071;-78
2021/09/27 12:41:20;;;;;;;13.30;7.40;;;819.40;1689.60;;;;;;5052620;28;20461;-78
2021/09/27 12:43:46;;;;;;;20.30;6.82;;;819.40;1689.60;;;;;;5053867;28;20120;-77
2021/09/27 12:46:23;;;;;;;20.35;6.95;;;819.50;1689.60;;;;;;5053529;28;20444;-77
2021/09/27 12:49:01;;;;;;;19.65;6.88;;;819.30;1664.00;;;;;;5053819;28;20029;-78
2021/09/27 12:51:36;;;;;;;17.67;6.65;;;819.40;1638.40;;;;;;5052571;28;20102;-77
2021/09/27 12:54:16;;;;;;;11.93;5.63;;;819.60;1689.60;;;;;;5052176;28;20040;-77
2021/09/27 12:56:42;;;;;;;15.70;5.32;;;819.60;1689.60;;;;;;5035834;28;20132;-77
2021/09/27 12:59:18;;;;;;;12.93;6.13;;;819.60;1664.00;;;;;;5053537;28;20083;-79
2021/09/27 13:01:48;;;;;;;12.45;5.90;;;819.60;1664.00;;;;;;5051481;28;20033;-77
2021/09/27 13:04:46;;;;;;;18.42;8.95;;;819.50;1664.00;;;;;;5052024;28;20025;-77
2021/09/27 13:07:16;;;;;;;14.90;6.88;;;819.70;1612.80;;;;;;5031275;28;20029;-79
2021/09/27 13:10:24;;;;;;;15.18;7.68;;;819.70;1612.80;;;;;;5052212;28;20025;-78